Search for airport 
image banner adimage banner adimage banner ad
image banner ad

IA43 - Strawberry Point Medical Center Heliport

Located in Strawberry Point, United States

ICAO - IA43, IATA -

Data provided by Airmate  

General information

Coordinates: N41°36'19" W94°36'58"
Elevation is 1395 feet MSL.
 
View others Airports in Iowa

Operational data

Special qualification required
Current time UTC:
Current local time:
Weather at : KADU - Audubon County ( 27 km )
METAR: KADU 150915Z AUTO 00000KT 10SM CLR 13/10 A3013 RMK AO2
View NOTAMs / SUP AIP / TFR affecting this airport [VIEW]
Communications frequencies: [VIEW]

Runways:

RWY identifierQFULength (ft)Width (ft)SurfaceLDA (ft)
04170055OTHER
22170055OTHER

Airport contact information

Address: Strawberry Point United States

Satellite view of IA43